createdAt,value
2019-04-29T00:02:25.242Z,73.03
2019-04-29T00:04:55.167Z,72.92
2019-04-29T00:07:25.159Z,72.87
2019-04-29T00:09:55.299Z,73.07
2019-04-29T00:12:25.797Z,73.10
2019-04-29T00:15:05.344Z,72.86
2019-04-29T00:20:20.366Z,72.92
2019-04-29T00:22:50.475Z,72.95
2019-04-29T00:25:20.936Z,72.84
2019-04-29T00:27:50.802Z,72.95
2019-04-29T00:30:22.391Z,73.13
2019-04-29T00:32:52.390Z,72.88
2019-04-29T00:35:22.344Z,72.86
2019-04-29T00:38:18.076Z,72.87
2019-04-29T00:41:12.850Z,72.52
2019-04-29T00:43:47.568Z,72.23
2019-04-29T00:46:18.828Z,72.15
2019-04-29T00:48:48.801Z,72.13
2019-04-29T00:51:18.805Z,72.37
2019-04-29T00:53:50.691Z,72.43
2019-04-29T00:56:20.619Z,72.45
2019-04-29T00:58:50.542Z,72.60
2019-04-29T01:01:24.233Z,72.53
2019-04-29T01:03:54.182Z,72.34
2019-04-29T01:06:24.120Z,72.19
2019-04-29T01:08:55.047Z,72.23
2019-04-29T01:11:24.977Z,72.48
2019-04-29T01:13:54.932Z,72.83
2019-04-29T01:16:24.771Z,72.68
2019-04-29T01:18:54.701Z,72.79
2019-04-29T01:21:24.718Z,73.00
2019-04-29T01:23:54.646Z,72.79
2019-04-29T01:26:46.378Z,72.75
2019-04-29T01:29:17.180Z,72.81
2019-04-29T01:31:47.087Z,72.86
2019-04-29T01:34:22.147Z,72.92
2019-04-29T01:36:51.937Z,73.05
2019-04-29T01:39:23.443Z,72.78
2019-04-29T01:42:05.111Z,73.01
2019-04-29T01:44:36.656Z,72.91
2019-04-29T01:47:06.587Z,72.88
2019-04-29T01:49:37.165Z,73.26
2019-04-29T01:52:07.084Z,73.13
2019-04-29T01:54:37.025Z,73.18
2019-04-29T01:57:06.956Z,73.26
2019-04-29T01:59:36.817Z,73.47
2019-04-29T02:02:06.747Z,73.50
2019-04-29T02:04:36.708Z,73.39
2019-04-29T02:07:06.642Z,73.60
2019-04-29T02:09:41.782Z,73.60
2019-04-29T02:12:12.002Z,73.43
2019-04-29T02:14:41.942Z,73.52
2019-04-29T02:17:11.775Z,73.71
2019-04-29T02:19:41.713Z,73.69
2019-04-29T02:22:19.716Z,73.53
2019-04-29T02:24:56.528Z,73.57
2019-04-29T02:27:26.375Z,73.35
2019-04-29T02:29:56.307Z,73.25
2019-04-29T02:32:26.105Z,73.30
2019-04-29T02:34:55.882Z,73.50
2019-04-29T02:37:30.978Z,73.52
2019-04-29T02:40:17.070Z,73.67
2019-04-29T02:42:56.142Z,73.60
2019-04-29T02:45:30.064Z,73.78
2019-04-29T02:47:59.839Z,73.81
2019-04-29T02:50:29.693Z,73.91
2019-04-29T02:52:59.609Z,73.86
2019-04-29T02:55:37.246Z,74.23
2019-04-29T02:58:22.098Z,74.34
2019-04-29T03:01:09.264Z,74.24
2019-04-29T03:04:04.371Z,74.26
2019-04-29T03:06:34.414Z,74.29
2019-04-29T03:09:05.862Z,74.07
2019-04-29T03:11:36.557Z,73.95
2019-04-29T03:14:06.466Z,73.95
2019-04-29T03:16:36.406Z,73.63
2019-04-29T03:19:11.083Z,73.53
2019-04-29T03:21:46.290Z,73.37
2019-04-29T03:24:16.204Z,73.31
2019-04-29T03:26:46.134Z,73.31
2019-04-29T03:29:22.169Z,73.44
2019-04-29T03:31:53.911Z,73.32
2019-04-29T03:34:24.153Z,73.40
2019-04-29T03:36:54.201Z,73.52
2019-04-29T03:39:24.186Z,73.50
2019-04-29T03:41:54.130Z,73.65
2019-04-29T03:44:24.050Z,73.61
2019-04-29T03:46:53.912Z,73.49
2019-04-29T03:49:23.846Z,73.49
2019-04-29T03:51:53.715Z,73.41
2019-04-29T03:54:23.744Z,73.49
2019-04-29T03:56:53.678Z,73.58
2019-04-29T03:59:23.440Z,73.45
2019-04-29T04:02:12.300Z,73.52
2019-04-29T04:05:07.817Z,73.61
2019-04-29T04:07:56.587Z,73.54
2019-04-29T04:10:26.524Z,73.26
2019-04-29T04:12:56.372Z,73.26
2019-04-29T04:15:26.604Z,73.53
2019-04-29T04:18:07.929Z,73.42
2019-04-29T04:20:38.098Z,73.14
2019-04-29T04:23:07.960Z,73.23
2019-04-29T04:25:38.385Z,73.39
2019-04-29T04:28:08.616Z,73.30
2019-04-29T04:30:38.545Z,73.25
2019-04-29T04:33:08.834Z,73.27
2019-04-29T04:35:38.789Z,73.08
2019-04-29T04:38:08.872Z,73.19
2019-04-29T04:40:43.530Z,73.18
2019-04-29T04:43:13.695Z,73.30
2019-04-29T04:45:43.544Z,73.55
2019-04-29T04:48:13.760Z,73.63
2019-04-29T04:50:43.677Z,73.81
2019-04-29T04:53:13.621Z,73.84
2019-04-29T04:55:44.929Z,73.51
2019-04-29T04:58:15.010Z,73.69
2019-04-29T05:00:44.979Z,73.83
2019-04-29T05:03:15.459Z,74.04
2019-04-29T05:05:45.385Z,74.15
2019-04-29T05:08:15.270Z,73.99
2019-04-29T05:10:45.145Z,74.08
2019-04-29T05:13:27.319Z,73.81
2019-04-29T05:15:47.274Z,73.90
2019-04-29T05:18:17.198Z,73.63
2019-04-29T05:20:47.042Z,73.79
2019-04-29T05:23:17.122Z,73.89
2019-04-29T05:25:47.262Z,73.91
2019-04-29T05:28:17.026Z,74.22
2019-04-29T05:30:46.889Z,74.28
2019-04-29T05:33:16.804Z,74.54
2019-04-29T05:35:56.708Z,74.60
2019-04-29T05:38:44.266Z,74.63
2019-04-29T05:41:14.483Z,74.64
2019-04-29T05:44:00.606Z,74.69
2019-04-29T05:46:49.475Z,74.89
2019-04-29T05:49:24.415Z,75.25
2019-04-29T05:52:01.956Z,75.45
2019-04-29T05:54:33.523Z,75.51
2019-04-29T05:57:04.612Z,75.11
2019-04-29T05:59:34.513Z,75.35
2019-04-29T06:02:04.445Z,75.39
2019-04-29T06:04:34.300Z,75.54
2019-04-29T06:07:04.232Z,75.56
2019-04-29T06:09:34.715Z,75.93
2019-04-29T06:12:04.641Z,75.98
2019-04-29T06:14:34.858Z,75.91
2019-04-29T06:17:07.743Z,75.94
2019-04-29T06:19:39.210Z,76.23
2019-04-29T06:22:09.215Z,76.35
2019-04-29T06:24:41.043Z,76.03
2019-04-29T06:27:10.542Z,75.90
2019-04-29T06:29:40.532Z,75.88
2019-04-29T06:32:10.318Z,76.29
2019-04-29T06:34:41.769Z,76.34
2019-04-29T06:37:11.896Z,76.00
2019-04-29T06:39:41.781Z,76.22
2019-04-29T06:42:15.565Z,75.92
2019-04-29T06:44:44.403Z,75.81
2019-04-29T06:47:17.013Z,76.17
2019-04-29T06:49:46.963Z,76.51
2019-04-29T06:52:17.169Z,76.82
2019-04-29T06:54:48.167Z,76.92
2019-04-29T06:57:18.168Z,76.91
2019-04-29T06:59:48.718Z,76.62
2019-04-29T07:02:18.742Z,76.48
2019-04-29T07:04:48.877Z,76.64
2019-04-29T07:07:18.821Z,77.54
2019-04-29T07:09:48.651Z,77.13
2019-04-29T07:12:18.597Z,77.54
2019-04-29T07:14:49.934Z,77.79
2019-04-29T07:17:19.904Z,77.81
2019-04-29T07:19:50.951Z,78.37
2019-04-29T07:22:25.577Z,77.78
2019-04-29T07:24:52.481Z,78.37
2019-04-29T07:27:22.413Z,78.31
2019-04-29T07:29:52.811Z,78.02
2019-04-29T07:32:22.759Z,78.51
2019-04-29T07:34:52.687Z,78.61
2019-04-29T07:37:22.956Z,78.50
2019-04-29T07:39:53.110Z,78.47
2019-04-29T07:42:25.026Z,77.79
2019-04-29T07:45:12.615Z,78.32
2019-04-29T07:47:55.881Z,78.05
2019-04-29T07:50:15.631Z,78.50
2019-04-29T07:52:50.026Z,78.20
2019-04-29T07:55:18.487Z,78.14
2019-04-29T07:57:52.177Z,77.92
2019-04-29T08:00:27.171Z,78.37
2019-04-29T08:02:57.478Z,78.79
2019-04-29T08:05:28.708Z,78.78
2019-04-29T08:08:00.111Z,77.91
2019-04-29T08:10:29.985Z,77.85
2019-04-29T08:13:00.931Z,77.92
2019-04-29T08:15:32.046Z,77.86
2019-04-29T08:18:06.775Z,77.81
2019-04-29T08:20:35.401Z,77.74
2019-04-29T08:23:05.223Z,78.38
2019-04-29T08:25:36.308Z,78.19
2019-04-29T08:28:06.267Z,77.73
2019-04-29T08:30:36.132Z,77.61
2019-04-29T08:33:07.557Z,77.75
2019-04-29T08:35:38.244Z,77.23
2019-04-29T08:38:08.405Z,77.34
2019-04-29T08:40:38.361Z,78.06
2019-04-29T08:43:22.381Z,77.82
2019-04-29T08:45:59.861Z,78.30
2019-04-29T08:48:29.818Z,77.24
2019-04-29T08:51:00.686Z,77.27
2019-04-29T08:53:30.633Z,76.85
2019-04-29T08:56:00.570Z,76.82
2019-04-29T08:58:31.594Z,76.94
2019-04-29T09:01:01.556Z,76.74
2019-04-29T09:03:40.191Z,76.41
2019-04-29T09:06:06.078Z,76.07
2019-04-29T09:08:35.644Z,75.43
2019-04-29T09:11:08.165Z,75.89
2019-04-29T09:13:38.368Z,76.14
2019-04-29T09:16:08.330Z,75.30
2019-04-29T09:18:38.281Z,75.33
2019-04-29T09:21:08.231Z,74.74
2019-04-29T09:23:38.208Z,73.55
2019-04-29T09:26:27.142Z,71.68
2019-04-29T09:28:59.800Z,71.64
2019-04-29T09:31:29.284Z,70.77
2019-04-29T09:34:06.532Z,67.51
2019-04-29T09:36:30.735Z,69.08
2019-04-29T09:39:00.700Z,69.23
2019-04-29T09:41:51.289Z,69.66
2019-04-29T09:44:44.966Z,69.15
2019-04-29T09:47:14.752Z,68.26
2019-04-29T09:49:44.766Z,66.14
2019-04-29T09:52:14.698Z,67.68
2019-04-29T09:54:44.635Z,67.85
2019-04-29T09:57:15.130Z,67.92
2019-04-29T09:59:49.831Z,67.70
2019-04-29T10:02:34.828Z,67.20
2019-04-29T10:05:13.914Z,66.43
2019-04-29T10:07:43.970Z,66.27
2019-04-29T10:10:14.154Z,66.26
2019-04-29T10:12:44.153Z,66.87
2019-04-29T10:15:16.036Z,65.63
2019-04-29T10:17:55.689Z,65.22
2019-04-29T10:20:38.649Z,65.51
2019-04-29T10:23:08.604Z,62.52
2019-04-29T10:25:38.651Z,62.21
2019-04-29T10:28:08.904Z,62.55
2019-04-29T10:30:38.846Z,62.20
2019-04-29T10:33:12.807Z,62.50
2019-04-29T10:35:40.754Z,61.82
2019-04-29T10:38:12.021Z,60.60
2019-04-29T10:41:02.797Z,60.00
2019-04-29T10:44:01.233Z,60.08
2019-04-29T10:47:02.484Z,61.07
2019-04-29T10:49:41.001Z,58.71
2019-04-29T10:52:11.061Z,60.05
2019-04-29T10:54:40.990Z,61.24
2019-04-29T10:57:14.816Z,62.91
2019-04-29T10:59:46.210Z,61.52
2019-04-29T11:02:49.378Z,59.19
2019-04-29T11:06:00.808Z,58.81
2019-04-29T11:08:49.832Z,58.61
2019-04-29T11:11:23.253Z,58.79
2019-04-29T11:13:51.510Z,59.60
2019-04-29T11:16:23.002Z,59.67
2019-04-29T11:18:55.113Z,59.10
2019-04-29T11:21:29.486Z,59.42
2019-04-29T11:24:05.342Z,59.91
2019-04-29T11:26:44.548Z,59.18
2019-04-29T11:29:13.239Z,59.57
2019-04-29T11:31:48.727Z,59.03
2019-04-29T11:34:35.841Z,56.68
2019-04-29T11:37:08.225Z,56.60
2019-04-29T11:39:38.099Z,55.91
2019-04-29T11:42:10.046Z,55.06
2019-04-29T11:44:40.000Z,55.74
2019-04-29T11:47:09.928Z,54.84
2019-04-29T11:49:47.869Z,55.75
2019-04-29T11:52:18.009Z,56.96
2019-04-29T11:54:47.958Z,54.32
2019-04-29T11:57:40.340Z,53.46
2019-04-29T12:00:18.418Z,54.19
2019-04-29T12:02:52.652Z,53.73
2019-04-29T12:05:44.913Z,52.18
2019-04-29T12:08:17.143Z,52.15
2019-04-29T12:10:52.048Z,53.16
2019-04-29T12:13:28.324Z,53.05
2019-04-29T12:16:11.278Z,51.33
2019-04-29T12:18:50.586Z,51.20
2019-04-29T12:21:40.772Z,51.56
2019-04-29T12:24:10.910Z,52.49
2019-04-29T12:26:44.224Z,50.66
2019-04-29T12:29:13.643Z,48.91
2019-04-29T12:31:57.688Z,49.85
2019-04-29T12:34:45.741Z,50.83
2019-04-29T12:37:29.789Z,50.05
2019-04-29T12:40:16.259Z,51.29
2019-04-29T12:43:04.252Z,51.26
2019-04-29T12:45:41.685Z,51.69
2019-04-29T12:48:23.984Z,51.63
2019-04-29T12:50:43.256Z,51.77
2019-04-29T12:53:13.117Z,47.45
2019-04-29T12:55:51.389Z,49.08
2019-04-29T12:58:19.381Z,49.98
2019-04-29T13:00:56.400Z,49.67
2019-04-29T13:03:39.726Z,48.99
2019-04-29T13:06:10.349Z,49.81
2019-04-29T13:08:49.438Z,50.73
2019-04-29T13:11:20.948Z,49.61
2019-04-29T13:13:56.081Z,48.89
2019-04-29T13:16:42.359Z,49.05
2019-04-29T13:19:20.183Z,49.12
2019-04-29T13:21:47.464Z,48.47
2019-04-29T13:24:23.772Z,50.42
2019-04-29T13:26:49.641Z,50.75
2019-04-29T13:29:27.179Z,49.81
2019-04-29T13:31:51.581Z,48.99
2019-04-29T13:34:31.069Z,49.63
2019-04-29T13:37:07.118Z,50.16
2019-04-29T13:39:40.499Z,50.37
2019-04-29T13:42:09.037Z,49.66
2019-04-29T13:44:41.542Z,48.63
2019-04-29T13:47:30.979Z,49.33
2019-04-29T13:50:26.718Z,49.21
2019-04-29T13:52:47.928Z,49.81
2019-04-29T13:55:45.445Z,51.55
2019-04-29T13:57:50.812Z,50.99
2019-04-29T14:00:36.282Z,50.59
2019-04-29T14:03:14.345Z,51.31
2019-04-29T14:05:44.608Z,50.42
2019-04-29T14:08:14.536Z,51.03
2019-04-29T14:10:46.877Z,50.42
2019-04-29T14:13:20.466Z,51.56
2019-04-29T14:15:47.824Z,51.85
2019-04-29T14:18:17.691Z,51.08
2019-04-29T14:20:51.788Z,51.22
2019-04-29T14:23:19.268Z,50.84
2019-04-29T14:25:49.144Z,50.78
2019-04-29T14:28:19.369Z,50.58
2019-04-29T14:30:49.364Z,49.81
2019-04-29T14:33:24.201Z,49.99
2019-04-29T14:36:01.750Z,50.13
2019-04-29T14:38:36.100Z,49.42
2019-04-29T14:41:06.681Z,50.24
2019-04-29T14:43:56.801Z,51.10
2019-04-29T14:46:50.966Z,51.13
2019-04-29T14:49:26.607Z,50.38
2019-04-29T14:51:56.643Z,49.89
2019-04-29T14:54:26.549Z,50.68
2019-04-29T14:56:56.828Z,50.48
2019-04-29T14:59:27.388Z,50.45
2019-04-29T15:02:07.453Z,50.57
2019-04-29T15:04:39.577Z,50.56
2019-04-29T15:07:09.898Z,50.87
2019-04-29T15:09:55.977Z,50.35
2019-04-29T15:13:06.658Z,50.35
2019-04-29T15:15:45.285Z,50.30
2019-04-29T15:18:47.338Z,50.48
2019-04-29T15:21:31.190Z,50.11
2019-04-29T15:23:50.681Z,49.42
2019-04-29T15:26:20.615Z,49.56
2019-04-29T15:28:53.474Z,50.65
2019-04-29T15:31:24.025Z,50.56
2019-04-29T15:33:54.040Z,51.17
2019-04-29T15:36:24.379Z,51.35
2019-04-29T15:39:09.562Z,51.38
2019-04-29T15:41:30.909Z,51.43
2019-04-29T15:44:07.249Z,51.78
2019-04-29T15:46:45.583Z,51.61
2019-04-29T15:49:03.163Z,50.95
2019-04-29T15:51:33.084Z,51.36
2019-04-29T15:54:04.224Z,50.85
2019-04-29T15:56:38.639Z,51.43
2019-04-29T15:59:08.690Z,51.24
2019-04-29T16:01:41.215Z,51.10
2019-04-29T16:04:14.696Z,51.69
2019-04-29T16:07:17.102Z,52.10
2019-04-29T16:10:20.536Z,51.00
2019-04-29T16:12:53.493Z,51.65
2019-04-29T16:15:23.468Z,51.18
2019-04-29T16:17:53.390Z,51.07
2019-04-29T16:20:23.637Z,51.05
2019-04-29T16:22:54.121Z,50.74
2019-04-29T16:25:25.464Z,50.80
2019-04-29T16:27:55.255Z,51.29
2019-04-29T16:30:26.080Z,51.35
2019-04-29T16:32:56.749Z,51.58
2019-04-29T16:35:34.294Z,51.75
2019-04-29T16:37:58.202Z,52.59
2019-04-29T16:40:33.861Z,52.82
2019-04-29T16:43:11.590Z,51.69
2019-04-29T16:45:52.863Z,51.70
2019-04-29T16:48:22.906Z,52.30
2019-04-29T16:50:52.765Z,53.32
2019-04-29T16:53:23.779Z,52.68
2019-04-29T16:55:53.721Z,52.78
2019-04-29T16:58:24.399Z,53.03
2019-04-29T17:00:54.832Z,52.63
2019-04-29T17:03:25.184Z,53.54
2019-04-29T17:05:55.103Z,53.02
2019-04-29T17:08:33.290Z,53.12
2019-04-29T17:11:20.190Z,53.60
2019-04-29T17:13:50.108Z,53.21
2019-04-29T17:16:20.687Z,53.29
2019-04-29T17:18:50.613Z,53.02
2019-04-29T17:21:20.640Z,53.53
2019-04-29T17:23:50.868Z,53.36
2019-04-29T17:26:22.546Z,53.46
2019-04-29T17:29:11.521Z,54.02
2019-04-29T17:31:57.158Z,54.36
2019-04-29T17:34:56.036Z,54.39
2019-04-29T17:37:00.012Z,54.53
2019-04-29T17:39:30.560Z,54.18
2019-04-29T17:42:01.629Z,54.62
2019-04-29T17:44:44.118Z,54.90
2019-04-29T17:47:42.444Z,55.00
2019-04-29T17:50:29.097Z,56.15
2019-04-29T17:52:49.171Z,58.13
2019-04-29T17:55:40.835Z,58.86
2019-04-29T17:58:23.282Z,58.97
2019-04-29T18:01:10.769Z,59.46
2019-04-29T18:04:16.828Z,60.12
2019-04-29T18:06:58.966Z,60.37
2019-04-29T18:09:50.888Z,60.82
2019-04-29T18:12:22.599Z,62.04
2019-04-29T18:14:52.654Z,62.32
2019-04-29T18:17:30.383Z,62.77
2019-04-29T18:20:33.023Z,62.92
2019-04-29T18:23:19.728Z,63.54
2019-04-29T18:26:00.186Z,63.72
2019-04-29T18:28:30.026Z,63.81
2019-04-29T18:30:59.978Z,64.38
2019-04-29T18:33:30.558Z,63.87
2019-04-29T18:36:04.669Z,63.32
2019-04-29T18:38:35.071Z,63.20
2019-04-29T18:41:05.025Z,63.25
2019-04-29T18:43:35.377Z,63.54
2019-04-29T18:46:12.263Z,63.42
2019-04-29T18:48:37.096Z,63.29
2019-04-29T18:51:06.963Z,63.08
2019-04-29T18:53:36.918Z,63.32
2019-04-29T18:56:06.852Z,62.94
2019-04-29T18:58:37.402Z,62.93
2019-04-29T19:01:07.340Z,63.17
2019-04-29T19:04:04.649Z,63.21
2019-04-29T19:06:33.223Z,63.17
2019-04-29T19:09:16.849Z,62.73
2019-04-29T19:11:36.770Z,62.95
2019-04-29T19:14:07.771Z,62.77
2019-04-29T19:16:39.391Z,62.29
2019-04-29T19:19:09.512Z,62.30
2019-04-29T19:21:39.412Z,62.08
2019-04-29T19:24:09.387Z,62.26
2019-04-29T19:26:40.846Z,62.39
2019-04-29T19:29:10.790Z,62.31
2019-04-29T19:31:46.675Z,62.27
2019-04-29T19:34:14.609Z,62.53
2019-04-29T19:36:45.144Z,62.11
2019-04-29T19:39:16.875Z,62.24
2019-04-29T19:41:50.338Z,62.52
2019-04-29T19:44:19.637Z,62.71
2019-04-29T19:46:51.256Z,62.89
2019-04-29T19:49:21.041Z,63.32
2019-04-29T19:51:50.930Z,63.01
2019-04-29T19:54:27.277Z,63.35
2019-04-29T19:56:55.527Z,63.40
2019-04-29T19:59:26.117Z,63.65
2019-04-29T20:02:05.017Z,63.98
2019-04-29T20:04:52.444Z,64.12
2019-04-29T20:07:23.257Z,64.18
2019-04-29T20:09:59.895Z,64.45
2019-04-29T20:12:26.304Z,64.71
2019-04-29T20:14:59.659Z,64.98
2019-04-29T20:17:49.274Z,65.13
2019-04-29T20:20:25.286Z,65.18
2019-04-29T20:22:55.863Z,65.39
2019-04-29T20:25:30.264Z,65.80
2019-04-29T20:28:05.693Z,66.35
2019-04-29T20:30:30.023Z,66.26
2019-04-29T20:33:01.180Z,66.38
2019-04-29T20:35:32.197Z,66.67
2019-04-29T20:38:02.305Z,66.84
2019-04-29T20:40:38.056Z,66.89
2019-04-29T20:43:08.578Z,66.77
2019-04-29T20:45:38.904Z,66.49
2019-04-29T20:48:11.135Z,66.64
2019-04-29T20:50:41.090Z,66.89
2019-04-29T20:53:20.001Z,67.09
2019-04-29T20:55:50.189Z,67.25
2019-04-29T20:58:23.590Z,67.51
2019-04-29T21:00:58.195Z,67.73
2019-04-29T21:03:29.806Z,67.85
2019-04-29T21:06:02.337Z,68.25
2019-04-29T21:08:28.236Z,68.21
2019-04-29T21:11:00.361Z,68.33
2019-04-29T21:13:55.855Z,68.40
2019-04-29T21:16:30.882Z,68.33
2019-04-29T21:19:09.057Z,68.65
2019-04-29T21:21:42.000Z,68.59
2019-04-29T21:24:13.906Z,68.55
2019-04-29T21:26:44.554Z,68.72
2019-04-29T21:29:19.242Z,68.75
2019-04-29T21:31:50.714Z,69.14
2019-04-29T21:34:19.738Z,69.40
2019-04-29T21:37:05.936Z,69.44
2019-04-29T21:39:44.655Z,69.80
2019-04-29T21:42:29.690Z,69.80
2019-04-29T21:44:58.617Z,69.97
2019-04-29T21:47:41.672Z,69.71
2019-04-29T21:50:01.145Z,69.86
2019-04-29T21:52:31.153Z,69.96
2019-04-29T21:55:01.038Z,70.23
2019-04-29T21:57:30.899Z,70.22
2019-04-29T22:00:01.043Z,69.67
2019-04-29T22:02:33.255Z,69.33
2019-04-29T22:05:05.182Z,68.82
2019-04-29T22:07:35.773Z,68.63
2019-04-29T22:10:09.281Z,68.38
2019-04-29T22:12:39.227Z,68.58
2019-04-29T22:15:09.163Z,68.60
2019-04-29T22:17:39.356Z,68.03
2019-04-29T22:20:11.025Z,67.84
2019-04-29T22:22:41.411Z,67.67
2019-04-29T22:25:11.666Z,67.34
2019-04-29T22:27:41.612Z,67.42
2019-04-29T22:30:15.420Z,67.44
2019-04-29T22:32:46.937Z,67.30
2019-04-29T22:35:16.671Z,67.25
2019-04-29T22:37:46.982Z,66.98
2019-04-29T22:40:17.489Z,67.04
2019-04-29T22:43:04.693Z,67.11
2019-04-29T22:45:33.917Z,67.12
2019-04-29T22:48:14.713Z,66.90
2019-04-29T22:50:38.115Z,66.65
2019-04-29T22:53:08.741Z,66.43
2019-04-29T22:55:38.909Z,66.43
2019-04-29T22:58:10.083Z,66.35
2019-04-29T23:00:40.305Z,66.31
2019-04-29T23:03:10.536Z,66.49
2019-04-29T23:05:40.385Z,66.53
2019-04-29T23:08:10.341Z,66.60
2019-04-29T23:10:40.267Z,66.68
2019-04-29T23:13:10.134Z,66.35
2019-04-29T23:15:40.100Z,66.47
2019-04-29T23:18:09.973Z,66.26
2019-04-29T23:21:08.112Z,66.19
2019-04-29T23:23:42.988Z,66.57
2019-04-29T23:26:12.857Z,66.78
2019-04-29T23:28:42.632Z,67.05
2019-04-29T23:31:12.974Z,67.46
2019-04-29T23:33:42.855Z,67.47
2019-04-29T23:36:14.192Z,67.54
2019-04-29T23:38:44.733Z,67.39
2019-04-29T23:41:15.377Z,67.47
2019-04-29T23:43:45.694Z,67.79
2019-04-29T23:46:16.135Z,68.04
2019-04-29T23:48:46.821Z,68.24
2019-04-29T23:51:16.792Z,68.18
2019-04-29T23:53:46.729Z,68.36
2019-04-29T23:56:18.346Z,68.52
2019-04-29T23:59:05.536Z,68.44
